sensor_id;sensor_type;location;lat;lon;timestamp;temperature;humidity
4934;DHT22;2482;49.154;8.254;2023-11-21T00:01:34;9.60;99.90
4934;DHT22;2482;49.154;8.254;2023-11-21T00:04:02;9.50;99.90
4934;DHT22;2482;49.154;8.254;2023-11-21T00:06:29;9.50;99.90
4934;DHT22;2482;49.154;8.254;2023-11-21T00:08:56;9.40;99.90
4934;DHT22;2482;49.154;8.254;2023-11-21T00:11:23;9.50;99.90
4934;DHT22;2482;49.154;8.254;2023-11-21T00:13:52;9.40;99.90
4934;DHT22;2482;49.154;8.254;2023-11-21T00:16:20;9.50;99.90
4934;DHT22;2482;49.154;8.254;2023-11-21T00:18:48;9.50;99.90
4934;DHT22;2482;49.154;8.254;2023-11-21T00:21:16;9.50;99.90
4934;DHT22;2482;49.154;8.254;2023-11-21T00:23:43;9.40;99.90
4934;DHT22;2482;49.154;8.254;2023-11-21T00:26:11;9.40;99.90
4934;DHT22;2482;49.154;8.254;2023-11-21T00:28:39;9.40;99.90
4934;DHT22;2482;49.154;8.254;2023-11-21T00:31:06;9.50;99.90
4934;DHT22;2482;49.154;8.254;2023-11-21T00:33:33;9.50;99.90
4934;DHT22;2482;49.154;8.254;2023-11-21T00:36:01;9.50;99.90
4934;DHT22;2482;49.154;8.254;2023-11-21T00:38:28;9.50;99.90
4934;DHT22;2482;49.154;8.254;2023-11-21T00:40:55;9.50;99.90
4934;DHT22;2482;49.154;8.254;2023-11-21T00:43:23;9.50;99.90
4934;DHT22;2482;49.154;8.254;2023-11-21T00:45:51;9.50;99.90
4934;DHT22;2482;49.154;8.254;2023-11-21T00:48:18;9.60;99.90
4934;DHT22;2482;49.154;8.254;2023-11-21T00:50:45;9.60;99.90
4934;DHT22;2482;49.154;8.254;2023-11-21T00:53:12;9.70;99.90
4934;DHT22;2482;49.154;8.254;2023-11-21T00:55:39;9.70;99.90
4934;DHT22;2482;49.154;8.254;2023-11-21T00:58:07;9.70;99.90
4934;DHT22;2482;49.154;8.254;2023-11-21T01:00:34;9.60;99.90
4934;DHT22;2482;49.154;8.254;2023-11-21T01:03:01;9.80;99.90
4934;DHT22;2482;49.154;8.254;2023-11-21T01:05:31;9.60;99.90
4934;DHT22;2482;49.154;8.254;2023-11-21T01:07:58;9.60;99.90
4934;DHT22;2482;49.154;8.254;2023-11-21T01:10:27;9.60;99.90
4934;DHT22;2482;49.154;8.254;2023-11-21T01:12:55;9.50;99.90
4934;DHT22;2482;49.154;8.254;2023-11-21T01:15:22;9.50;99.90
4934;DHT22;2482;49.154;8.254;2023-11-21T01:17:48;9.60;99.90
4934;DHT22;2482;49.154;8.254;2023-11-21T01:20:16;9.60;99.90
4934;DHT22;2482;49.154;8.254;2023-11-21T01:22:44;9.70;99.90
4934;DHT22;2482;49.154;8.254;2023-11-21T01:25:11;9.60;99.90
4934;DHT22;2482;49.154;8.254;2023-11-21T01:27:41;9.60;99.90
4934;DHT22;2482;49.154;8.254;2023-11-21T01:30:09;9.60;99.90
4934;DHT22;2482;49.154;8.254;2023-11-21T01:32:40;9.60;99.90
4934;DHT22;2482;49.154;8.254;2023-11-21T01:35:08;9.50;99.90
4934;DHT22;2482;49.154;8.254;2023-11-21T01:37:37;9.60;99.90
4934;DHT22;2482;49.154;8.254;2023-11-21T01:40:05;9.60;99.90
4934;DHT22;2482;49.154;8.254;2023-11-21T01:42:36;9.60;99.90
4934;DHT22;2482;49.154;8.254;2023-11-21T01:45:04;9.60;99.90
4934;DHT22;2482;49.154;8.254;2023-11-21T01:47:34;9.60;99.90
4934;DHT22;2482;49.154;8.254;2023-11-21T01:50:03;9.50;99.90
4934;DHT22;2482;49.154;8.254;2023-11-21T01:52:35;9.50;99.90
4934;DHT22;2482;49.154;8.254;2023-11-21T01:55:03;9.50;99.90
4934;DHT22;2482;49.154;8.254;2023-11-21T01:57:31;9.60;99.90
4934;DHT22;2482;49.154;8.254;2023-11-21T01:59:59;9.60;99.90
4934;DHT22;2482;49.154;8.254;2023-11-21T02:02:28;9.60;99.90
4934;DHT22;2482;49.154;8.254;2023-11-21T02:04:55;9.60;99.90
4934;DHT22;2482;49.154;8.254;2023-11-21T02:07:23;9.50;99.90
4934;DHT22;2482;49.154;8.254;2023-11-21T02:09:50;9.50;99.90
4934;DHT22;2482;49.154;8.254;2023-11-21T02:12:18;9.50;99.90
4934;DHT22;2482;49.154;8.254;2023-11-21T02:14:45;9.50;99.90
4934;DHT22;2482;49.154;8.254;2023-11-21T02:17:12;9.50;99.90
4934;DHT22;2482;49.154;8.254;2023-11-21T02:19:39;9.50;99.90
4934;DHT22;2482;49.154;8.254;2023-11-21T02:22:07;9.50;99.90
4934;DHT22;2482;49.154;8.254;2023-11-21T02:24:34;9.50;99.90
4934;DHT22;2482;49.154;8.254;2023-11-21T02:27:01;9.50;99.90
4934;DHT22;2482;49.154;8.254;2023-11-21T02:29:28;9.50;99.90
4934;DHT22;2482;49.154;8.254;2023-11-21T02:31:56;9.50;99.90
4934;DHT22;2482;49.154;8.254;2023-11-21T02:34:26;9.40;99.90
4934;DHT22;2482;49.154;8.254;2023-11-21T02:36:53;9.50;99.90
4934;DHT22;2482;49.154;8.254;2023-11-21T02:39:21;9.50;99.90
4934;DHT22;2482;49.154;8.254;2023-11-21T02:41:53;9.50;99.90
4934;DHT22;2482;49.154;8.254;2023-11-21T02:44:20;9.50;99.90
4934;DHT22;2482;49.154;8.254;2023-11-21T02:46:48;9.50;99.90
4934;DHT22;2482;49.154;8.254;2023-11-21T02:49:15;9.60;99.90
4934;DHT22;2482;49.154;8.254;2023-11-21T02:51:42;9.60;99.90
4934;DHT22;2482;49.154;8.254;2023-11-21T02:54:11;9.60;99.90
4934;DHT22;2482;49.154;8.254;2023-11-21T02:56:38;9.60;99.90
4934;DHT22;2482;49.154;8.254;2023-11-21T02:59:06;9.40;99.90
4934;DHT22;2482;49.154;8.254;2023-11-21T03:01:33;9.60;99.90
4934;DHT22;2482;49.154;8.254;2023-11-21T03:04:01;9.60;99.90
4934;DHT22;2482;49.154;8.254;2023-11-21T03:06:31;9.50;99.90
4934;DHT22;2482;49.154;8.254;2023-11-21T03:08:58;9.60;99.90
4934;DHT22;2482;49.154;8.254;2023-11-21T03:11:25;9.50;99.90
4934;DHT22;2482;49.154;8.254;2023-11-21T03:13:52;9.50;99.90
4934;DHT22;2482;49.154;8.254;2023-11-21T03:16:20;9.50;99.90
4934;DHT22;2482;49.154;8.254;2023-11-21T03:18:47;9.50;99.90
4934;DHT22;2482;49.154;8.254;2023-11-21T03:21:14;9.50;99.90
4934;DHT22;2482;49.154;8.254;2023-11-21T03:23:42;9.40;99.90
4934;DHT22;2482;49.154;8.254;2023-11-21T03:26:12;9.50;99.90
4934;DHT22;2482;49.154;8.254;2023-11-21T03:28:40;9.40;99.90
4934;DHT22;2482;49.154;8.254;2023-11-21T03:31:07;9.40;99.90
4934;DHT22;2482;49.154;8.254;2023-11-21T03:33:35;9.40;99.90
4934;DHT22;2482;49.154;8.254;2023-11-21T03:36:03;9.30;99.90
4934;DHT22;2482;49.154;8.254;2023-11-21T03:38:30;9.30;99.90
4934;DHT22;2482;49.154;8.254;2023-11-21T03:40:57;9.30;99.90
4934;DHT22;2482;49.154;8.254;2023-11-21T03:43:27;9.30;99.90
4934;DHT22;2482;49.154;8.254;2023-11-21T03:45:54;9.30;99.90
4934;DHT22;2482;49.154;8.254;2023-11-21T03:48:21;9.40;99.90
4934;DHT22;2482;49.154;8.254;2023-11-21T03:50:48;9.40;99.90
4934;DHT22;2482;49.154;8.254;2023-11-21T03:53:15;9.30;99.90
4934;DHT22;2482;49.154;8.254;2023-11-21T03:55:43;9.30;99.90
4934;DHT22;2482;49.154;8.254;2023-11-21T03:58:10;9.30;99.90
4934;DHT22;2482;49.154;8.254;2023-11-21T04:00:38;9.40;99.90
4934;DHT22;2482;49.154;8.254;2023-11-21T04:03:06;9.50;99.90
4934;DHT22;2482;49.154;8.254;2023-11-21T04:05:33;9.50;99.90
4934;DHT22;2482;49.154;8.254;2023-11-21T04:08:00;9.50;99.90
4934;DHT22;2482;49.154;8.254;2023-11-21T04:10:27;9.40;99.90
4934;DHT22;2482;49.154;8.254;2023-11-21T04:12:55;9.50;99.90
4934;DHT22;2482;49.154;8.254;2023-11-21T04:15:22;9.40;99.90
4934;DHT22;2482;49.154;8.254;2023-11-21T04:17:49;9.30;99.90
4934;DHT22;2482;49.154;8.254;2023-11-21T04:20:16;9.30;99.90
4934;DHT22;2482;49.154;8.254;2023-11-21T04:22:44;9.30;99.90
4934;DHT22;2482;49.154;8.254;2023-11-21T04:25:17;9.20;99.90
4934;DHT22;2482;49.154;8.254;2023-11-21T04:27:45;9.20;99.90
4934;DHT22;2482;49.154;8.254;2023-11-21T04:30:13;9.30;99.90
4934;DHT22;2482;49.154;8.254;2023-11-21T04:32:41;9.20;99.90
4934;DHT22;2482;49.154;8.254;2023-11-21T04:35:09;9.30;99.90
4934;DHT22;2482;49.154;8.254;2023-11-21T04:37:36;9.40;99.90
4934;DHT22;2482;49.154;8.254;2023-11-21T04:40:04;9.40;99.90
4934;DHT22;2482;49.154;8.254;2023-11-21T04:42:34;9.30;99.90
4934;DHT22;2482;49.154;8.254;2023-11-21T04:45:04;9.30;99.90
4934;DHT22;2482;49.154;8.254;2023-11-21T04:47:36;9.30;99.90
4934;DHT22;2482;49.154;8.254;2023-11-21T04:50:03;9.20;99.90
4934;DHT22;2482;49.154;8.254;2023-11-21T04:52:31;9.20;99.90
4934;DHT22;2482;49.154;8.254;2023-11-21T04:55:00;9.20;99.90
4934;DHT22;2482;49.154;8.254;2023-11-21T04:57:28;9.20;99.90
4934;DHT22;2482;49.154;8.254;2023-11-21T04:59:55;9.20;99.90
4934;DHT22;2482;49.154;8.254;2023-11-21T05:02:22;9.20;99.90
4934;DHT22;2482;49.154;8.254;2023-11-21T05:05:01;9.20;99.90
4934;DHT22;2482;49.154;8.254;2023-11-21T05:07:29;9.20;99.90
4934;DHT22;2482;49.154;8.254;2023-11-21T05:09:58;9.20;99.90
4934;DHT22;2482;49.154;8.254;2023-11-21T05:12:26;9.20;99.90
4934;DHT22;2482;49.154;8.254;2023-11-21T05:14:53;9.30;99.90
4934;DHT22;2482;49.154;8.254;2023-11-21T05:17:20;9.30;99.90
4934;DHT22;2482;49.154;8.254;2023-11-21T05:19:46;9.30;99.90
4934;DHT22;2482;49.154;8.254;2023-11-21T05:22:16;9.40;99.90
4934;DHT22;2482;49.154;8.254;2023-11-21T05:24:48;9.50;99.90
4934;DHT22;2482;49.154;8.254;2023-11-21T05:27:18;9.30;99.90
4934;DHT22;2482;49.154;8.254;2023-11-21T05:29:45;9.20;99.90
4934;DHT22;2482;49.154;8.254;2023-11-21T05:32:12;9.30;99.90
4934;DHT22;2482;49.154;8.254;2023-11-21T05:34:39;9.40;99.90
4934;DHT22;2482;49.154;8.254;2023-11-21T05:37:11;9.50;99.90
4934;DHT22;2482;49.154;8.254;2023-11-21T05:39:39;9.40;99.90
4934;DHT22;2482;49.154;8.254;2023-11-21T05:42:07;9.40;99.90
4934;DHT22;2482;49.154;8.254;2023-11-21T05:44:35;9.40;99.90
4934;DHT22;2482;49.154;8.254;2023-11-21T05:47:02;9.40;99.90
4934;DHT22;2482;49.154;8.254;2023-11-21T05:49:34;9.40;99.90
4934;DHT22;2482;49.154;8.254;2023-11-21T05:52:01;9.30;99.90
4934;DHT22;2482;49.154;8.254;2023-11-21T05:54:31;9.40;99.90
4934;DHT22;2482;49.154;8.254;2023-11-21T05:57:01;9.40;99.90
4934;DHT22;2482;49.154;8.254;2023-11-21T05:59:30;9.40;99.90
4934;DHT22;2482;49.154;8.254;2023-11-21T06:02:01;9.40;99.90
4934;DHT22;2482;49.154;8.254;2023-11-21T06:04:30;9.40;99.90
4934;DHT22;2482;49.154;8.254;2023-11-21T06:06:59;9.40;99.90
4934;DHT22;2482;49.154;8.254;2023-11-21T06:09:28;9.40;99.90
4934;DHT22;2482;49.154;8.254;2023-11-21T06:11:57;9.40;99.90
4934;DHT22;2482;49.154;8.254;2023-11-21T06:14:23;9.30;99.90
4934;DHT22;2482;49.154;8.254;2023-11-21T06:16:50;9.40;99.90
4934;DHT22;2482;49.154;8.254;2023-11-21T06:19:19;9.50;99.90
4934;DHT22;2482;49.154;8.254;2023-11-21T06:21:46;9.40;99.90
4934;DHT22;2482;49.154;8.254;2023-11-21T06:24:16;9.40;99.90
4934;DHT22;2482;49.154;8.254;2023-11-21T06:26:45;9.40;99.90
4934;DHT22;2482;49.154;8.254;2023-11-21T06:29:16;9.40;99.90
4934;DHT22;2482;49.154;8.254;2023-11-21T06:31:43;9.40;99.90
4934;DHT22;2482;49.154;8.254;2023-11-21T06:34:10;9.50;99.90
4934;DHT22;2482;49.154;8.254;2023-11-21T06:36:38;9.50;99.90
4934;DHT22;2482;49.154;8.254;2023-11-21T06:39:07;9.40;99.90
4934;DHT22;2482;49.154;8.254;2023-11-21T06:41:34;9.30;99.90
4934;DHT22;2482;49.154;8.254;2023-11-21T06:44:03;9.40;99.90
4934;DHT22;2482;49.154;8.254;2023-11-21T06:46:32;9.50;99.90
4934;DHT22;2482;49.154;8.254;2023-11-21T06:49:00;9.50;99.90
4934;DHT22;2482;49.154;8.254;2023-11-21T06:51:27;9.40;99.90
4934;DHT22;2482;49.154;8.254;2023-11-21T06:53:54;9.30;99.90
4934;DHT22;2482;49.154;8.254;2023-11-21T06:56:21;9.30;99.90
4934;DHT22;2482;49.154;8.254;2023-11-21T06:58:48;9.40;99.90
4934;DHT22;2482;49.154;8.254;2023-11-21T07:01:16;9.50;99.90
4934;DHT22;2482;49.154;8.254;2023-11-21T07:03:45;9.50;99.90
4934;DHT22;2482;49.154;8.254;2023-11-21T07:06:13;9.40;99.90
4934;DHT22;2482;49.154;8.254;2023-11-21T07:08:43;9.40;99.90
4934;DHT22;2482;49.154;8.254;2023-11-21T07:11:10;9.20;99.90
4934;DHT22;2482;49.154;8.254;2023-11-21T07:13:37;9.10;99.90
4934;DHT22;2482;49.154;8.254;2023-11-21T07:16:04;9.10;99.90
4934;DHT22;2482;49.154;8.254;2023-11-21T07:18:31;9.00;99.90
4934;DHT22;2482;49.154;8.254;2023-11-21T07:20:59;9.10;99.90
4934;DHT22;2482;49.154;8.254;2023-11-21T07:23:26;9.00;99.90
4934;DHT22;2482;49.154;8.254;2023-11-21T07:25:53;9.00;99.90
4934;DHT22;2482;49.154;8.254;2023-11-21T07:28:20;9.00;99.90
4934;DHT22;2482;49.154;8.254;2023-11-21T07:30:49;9.10;99.90
4934;DHT22;2482;49.154;8.254;2023-11-21T07:33:16;9.00;99.90
4934;DHT22;2482;49.154;8.254;2023-11-21T07:35:44;9.10;99.90
4934;DHT22;2482;49.154;8.254;2023-11-21T07:38:11;9.10;99.90
4934;DHT22;2482;49.154;8.254;2023-11-21T07:40:38;9.20;99.90
4934;DHT22;2482;49.154;8.254;2023-11-21T07:43:05;9.20;99.90
4934;DHT22;2482;49.154;8.254;2023-11-21T07:45:33;9.40;99.90
4934;DHT22;2482;49.154;8.254;2023-11-21T07:48:00;9.40;99.90
4934;DHT22;2482;49.154;8.254;2023-11-21T07:50:29;9.50;99.90
4934;DHT22;2482;49.154;8.254;2023-11-21T07:52:57;9.50;99.90
4934;DHT22;2482;49.154;8.254;2023-11-21T07:55:30;9.50;99.90
4934;DHT22;2482;49.154;8.254;2023-11-21T07:57:59;9.50;99.90
4934;DHT22;2482;49.154;8.254;2023-11-21T08:00:26;9.50;99.90
4934;DHT22;2482;49.154;8.254;2023-11-21T08:02:57;9.40;99.90
4934;DHT22;2482;49.154;8.254;2023-11-21T08:05:24;9.50;99.90
4934;DHT22;2482;49.154;8.254;2023-11-21T08:08:11;9.50;99.90
4934;DHT22;2482;49.154;8.254;2023-11-21T08:10:38;9.50;99.90
4934;DHT22;2482;49.154;8.254;2023-11-21T08:13:11;9.50;99.90
4934;DHT22;2482;49.154;8.254;2023-11-21T08:15:41;9.50;99.90
4934;DHT22;2482;49.154;8.254;2023-11-21T08:18:13;9.50;99.90
4934;DHT22;2482;49.154;8.254;2023-11-21T08:20:41;9.60;99.90
4934;DHT22;2482;49.154;8.254;2023-11-21T08:23:09;9.50;99.90
4934;DHT22;2482;49.154;8.254;2023-11-21T08:25:37;9.40;99.90
4934;DHT22;2482;49.154;8.254;2023-11-21T08:28:08;9.40;99.90
4934;DHT22;2482;49.154;8.254;2023-11-21T08:30:36;9.40;99.90
4934;DHT22;2482;49.154;8.254;2023-11-21T08:33:04;9.40;99.90
4934;DHT22;2482;49.154;8.254;2023-11-21T08:35:34;9.40;99.90
4934;DHT22;2482;49.154;8.254;2023-11-21T08:38:04;9.40;99.90
4934;DHT22;2482;49.154;8.254;2023-11-21T08:40:31;9.40;99.90
4934;DHT22;2482;49.154;8.254;2023-11-21T08:43:02;9.40;99.90
4934;DHT22;2482;49.154;8.254;2023-11-21T08:45:39;9.40;99.90
4934;DHT22;2482;49.154;8.254;2023-11-21T08:48:15;9.50;99.90
4934;DHT22;2482;49.154;8.254;2023-11-21T08:50:58;9.50;99.90
4934;DHT22;2482;49.154;8.254;2023-11-21T08:53:26;9.50;99.90
4934;DHT22;2482;49.154;8.254;2023-11-21T08:55:53;9.50;99.90
4934;DHT22;2482;49.154;8.254;2023-11-21T08:58:24;9.50;99.90
4934;DHT22;2482;49.154;8.254;2023-11-21T09:00:52;9.50;99.90
4934;DHT22;2482;49.154;8.254;2023-11-21T09:03:19;9.50;99.90
4934;DHT22;2482;49.154;8.254;2023-11-21T09:05:46;9.50;99.90
4934;DHT22;2482;49.154;8.254;2023-11-21T09:08:17;9.50;99.90
4934;DHT22;2482;49.154;8.254;2023-11-21T09:10:47;9.50;99.90
4934;DHT22;2482;49.154;8.254;2023-11-21T09:13:17;9.60;99.90
4934;DHT22;2482;49.154;8.254;2023-11-21T09:15:45;9.50;99.90
4934;DHT22;2482;49.154;8.254;2023-11-21T09:18:13;9.60;99.90
4934;DHT22;2482;49.154;8.254;2023-11-21T09:20:42;9.60;99.90
4934;DHT22;2482;49.154;8.254;2023-11-21T09:23:12;9.60;99.90
4934;DHT22;2482;49.154;8.254;2023-11-21T09:25:39;9.60;99.90
4934;DHT22;2482;49.154;8.254;2023-11-21T09:28:07;9.60;99.90
4934;DHT22;2482;49.154;8.254;2023-11-21T09:30:35;9.70;99.90
4934;DHT22;2482;49.154;8.254;2023-11-21T09:33:03;9.60;99.90
4934;DHT22;2482;49.154;8.254;2023-11-21T09:35:34;9.60;99.90
4934;DHT22;2482;49.154;8.254;2023-11-21T09:38:01;9.60;99.90
4934;DHT22;2482;49.154;8.254;2023-11-21T09:40:32;9.60;99.90
4934;DHT22;2482;49.154;8.254;2023-11-21T09:43:01;9.70;99.90
4934;DHT22;2482;49.154;8.254;2023-11-21T09:45:50;9.70;99.90
4934;DHT22;2482;49.154;8.254;2023-11-21T09:48:22;9.70;99.90
4934;DHT22;2482;49.154;8.254;2023-11-21T09:50:53;9.80;99.90
4934;DHT22;2482;49.154;8.254;2023-11-21T09:53:21;9.80;99.90
4934;DHT22;2482;49.154;8.254;2023-11-21T09:55:53;9.80;99.90
4934;DHT22;2482;49.154;8.254;2023-11-21T09:58:21;9.80;99.90
4934;DHT22;2482;49.154;8.254;2023-11-21T10:00:53;9.80;99.90
4934;DHT22;2482;49.154;8.254;2023-11-21T10:03:23;9.80;99.90
4934;DHT22;2482;49.154;8.254;2023-11-21T10:05:53;9.80;99.90
4934;DHT22;2482;49.154;8.254;2023-11-21T10:08:23;9.80;99.90
4934;DHT22;2482;49.154;8.254;2023-11-21T10:10:53;9.70;99.90
4934;DHT22;2482;49.154;8.254;2023-11-21T10:13:22;9.60;99.90
4934;DHT22;2482;49.154;8.254;2023-11-21T10:15:52;9.60;99.90
4934;DHT22;2482;49.154;8.254;2023-11-21T10:18:22;9.60;99.90
4934;DHT22;2482;49.154;8.254;2023-11-21T10:20:53;9.40;99.90
4934;DHT22;2482;49.154;8.254;2023-11-21T10:23:21;9.40;99.90
4934;DHT22;2482;49.154;8.254;2023-11-21T10:25:54;9.40;99.90
4934;DHT22;2482;49.154;8.254;2023-11-21T10:28:35;9.40;99.90
4934;DHT22;2482;49.154;8.254;2023-11-21T10:31:07;9.30;99.90
4934;DHT22;2482;49.154;8.254;2023-11-21T10:33:34;9.40;99.90
4934;DHT22;2482;49.154;8.254;2023-11-21T10:36:01;9.30;99.90
4934;DHT22;2482;49.154;8.254;2023-11-21T10:38:33;9.40;99.90
4934;DHT22;2482;49.154;8.254;2023-11-21T10:41:12;9.40;99.90
4934;DHT22;2482;49.154;8.254;2023-11-21T10:43:43;9.40;99.90
4934;DHT22;2482;49.154;8.254;2023-11-21T10:46:11;9.50;99.90
4934;DHT22;2482;49.154;8.254;2023-11-21T10:48:44;9.40;99.90
4934;DHT22;2482;49.154;8.254;2023-11-21T10:51:13;9.40;99.90
4934;DHT22;2482;49.154;8.254;2023-11-21T10:53:42;9.40;99.90
4934;DHT22;2482;49.154;8.254;2023-11-21T10:56:14;9.60;99.90
4934;DHT22;2482;49.154;8.254;2023-11-21T10:58:47;9.60;99.90
4934;DHT22;2482;49.154;8.254;2023-11-21T11:01:17;9.50;99.90
4934;DHT22;2482;49.154;8.254;2023-11-21T11:03:45;9.60;99.90
4934;DHT22;2482;49.154;8.254;2023-11-21T11:06:13;9.60;99.90
4934;DHT22;2482;49.154;8.254;2023-11-21T11:08:41;9.70;99.90
4934;DHT22;2482;49.154;8.254;2023-11-21T11:11:09;9.70;99.90
4934;DHT22;2482;49.154;8.254;2023-11-21T11:13:37;9.80;99.90
4934;DHT22;2482;49.154;8.254;2023-11-21T11:16:08;9.70;99.90
4934;DHT22;2482;49.154;8.254;2023-11-21T11:18:37;9.70;99.90
4934;DHT22;2482;49.154;8.254;2023-11-21T11:21:26;9.70;99.90
4934;DHT22;2482;49.154;8.254;2023-11-21T11:24:13;9.80;99.90
4934;DHT22;2482;49.154;8.254;2023-11-21T11:27:21;9.70;99.90
4934;DHT22;2482;49.154;8.254;2023-11-21T11:33:31;9.60;99.90
4934;DHT22;2482;49.154;8.254;2023-11-21T11:41:58;9.60;99.90
4934;DHT22;2482;49.154;8.254;2023-11-21T11:52:45;9.70;99.90
4934;DHT22;2482;49.154;8.254;2023-11-21T11:55:14;9.90;99.90
4934;DHT22;2482;49.154;8.254;2023-11-21T11:57:48;9.80;99.90
4934;DHT22;2482;49.154;8.254;2023-11-21T12:02:58;9.60;99.90
4934;DHT22;2482;49.154;8.254;2023-11-21T12:05:30;9.60;99.90
4934;DHT22;2482;49.154;8.254;2023-11-21T12:08:12;9.60;99.90
4934;DHT22;2482;49.154;8.254;2023-11-21T12:10:39;9.60;99.90
4934;DHT22;2482;49.154;8.254;2023-11-21T12:13:09;9.60;99.90
4934;DHT22;2482;49.154;8.254;2023-11-21T12:15:39;9.50;99.90
4934;DHT22;2482;49.154;8.254;2023-11-21T12:18:09;9.50;99.90
4934;DHT22;2482;49.154;8.254;2023-11-21T12:20:36;9.60;99.90
4934;DHT22;2482;49.154;8.254;2023-11-21T12:23:07;9.70;99.90
4934;DHT22;2482;49.154;8.254;2023-11-21T12:25:36;9.70;99.90
4934;DHT22;2482;49.154;8.254;2023-11-21T12:28:04;9.80;99.90
4934;DHT22;2482;49.154;8.254;2023-11-21T12:30:33;9.80;99.90
4934;DHT22;2482;49.154;8.254;2023-11-21T12:33:05;10.00;99.90
4934;DHT22;2482;49.154;8.254;2023-11-21T12:35:36;10.00;99.90
4934;DHT22;2482;49.154;8.254;2023-11-21T12:38:04;10.20;99.90
4934;DHT22;2482;49.154;8.254;2023-11-21T12:40:32;10.20;99.90
4934;DHT22;2482;49.154;8.254;2023-11-21T12:43:00;10.20;99.90
4934;DHT22;2482;49.154;8.254;2023-11-21T12:45:31;10.10;99.90
4934;DHT22;2482;49.154;8.254;2023-11-21T12:48:00;10.10;99.90
4934;DHT22;2482;49.154;8.254;2023-11-21T12:50:36;10.20;99.90
4934;DHT22;2482;49.154;8.254;2023-11-21T12:53:05;10.30;99.90
4934;DHT22;2482;49.154;8.254;2023-11-21T12:55:37;10.30;99.90
4934;DHT22;2482;49.154;8.254;2023-11-21T12:58:07;10.30;99.90
4934;DHT22;2482;49.154;8.254;2023-11-21T13:00:45;10.30;99.90
4934;DHT22;2482;49.154;8.254;2023-11-21T13:03:16;10.30;99.90
4934;DHT22;2482;49.154;8.254;2023-11-21T13:05:48;10.20;99.90
4934;DHT22;2482;49.154;8.254;2023-11-21T13:08:19;10.20;99.90
4934;DHT22;2482;49.154;8.254;2023-11-21T13:10:51;10.20;99.90
4934;DHT22;2482;49.154;8.254;2023-11-21T13:13:21;10.30;99.90
4934;DHT22;2482;49.154;8.254;2023-11-21T13:15:53;10.30;99.90
4934;DHT22;2482;49.154;8.254;2023-11-21T13:18:27;10.40;99.90
4934;DHT22;2482;49.154;8.254;2023-11-21T13:20:55;10.40;99.90
4934;DHT22;2482;49.154;8.254;2023-11-21T13:23:25;10.60;99.90
4934;DHT22;2482;49.154;8.254;2023-11-21T13:25:53;10.60;99.90
4934;DHT22;2482;49.154;8.254;2023-11-21T13:28:31;10.70;99.90
4934;DHT22;2482;49.154;8.254;2023-11-21T13:31:03;10.80;99.90
4934;DHT22;2482;49.154;8.254;2023-11-21T13:33:48;10.80;99.90
4934;DHT22;2482;49.154;8.254;2023-11-21T13:36:25;10.80;99.90
4934;DHT22;2482;49.154;8.254;2023-11-21T13:38:57;10.80;99.90
4934;DHT22;2482;49.154;8.254;2023-11-21T13:41:25;10.80;99.90
4934;DHT22;2482;49.154;8.254;2023-11-21T13:43:58;10.70;99.90
4934;DHT22;2482;49.154;8.254;2023-11-21T13:46:45;10.80;99.90
4934;DHT22;2482;49.154;8.254;2023-11-21T13:49:13;10.90;99.90
4934;DHT22;2482;49.154;8.254;2023-11-21T13:51:42;10.80;99.90
4934;DHT22;2482;49.154;8.254;2023-11-21T13:54:16;10.70;99.90
4934;DHT22;2482;49.154;8.254;2023-11-21T13:56:43;10.70;99.90
4934;DHT22;2482;49.154;8.254;2023-11-21T13:59:12;10.80;99.90
4934;DHT22;2482;49.154;8.254;2023-11-21T14:01:52;10.80;99.90
4934;DHT22;2482;49.154;8.254;2023-11-21T14:04:43;10.90;99.90
4934;DHT22;2482;49.154;8.254;2023-11-21T14:07:23;11.00;99.90
4934;DHT22;2482;49.154;8.254;2023-11-21T14:10:04;11.10;99.90
4934;DHT22;2482;49.154;8.254;2023-11-21T14:12:39;11.10;99.90
4934;DHT22;2482;49.154;8.254;2023-11-21T14:15:09;11.00;99.90
4934;DHT22;2482;49.154;8.254;2023-11-21T14:17:38;10.90;99.90
4934;DHT22;2482;49.154;8.254;2023-11-21T14:20:08;11.00;99.90
4934;DHT22;2482;49.154;8.254;2023-11-21T14:22:43;10.90;99.90
4934;DHT22;2482;49.154;8.254;2023-11-21T14:25:10;10.90;99.90
4934;DHT22;2482;49.154;8.254;2023-11-21T14:27:38;10.80;99.90
4934;DHT22;2482;49.154;8.254;2023-11-21T14:30:06;10.90;99.90
4934;DHT22;2482;49.154;8.254;2023-11-21T14:32:33;10.80;99.90
4934;DHT22;2482;49.154;8.254;2023-11-21T14:35:01;10.80;99.90
4934;DHT22;2482;49.154;8.254;2023-11-21T14:37:30;10.80;99.90
4934;DHT22;2482;49.154;8.254;2023-11-21T14:39:57;10.80;99.90
4934;DHT22;2482;49.154;8.254;2023-11-21T14:42:24;10.80;99.90
4934;DHT22;2482;49.154;8.254;2023-11-21T14:44:56;10.80;99.90
4934;DHT22;2482;49.154;8.254;2023-11-21T14:47:29;10.80;99.90
4934;DHT22;2482;49.154;8.254;2023-11-21T14:49:56;10.80;99.90
4934;DHT22;2482;49.154;8.254;2023-11-21T14:52:26;10.70;99.90
4934;DHT22;2482;49.154;8.254;2023-11-21T14:55:01;10.80;99.90
4934;DHT22;2482;49.154;8.254;2023-11-21T14:58:13;10.80;99.90
4934;DHT22;2482;49.154;8.254;2023-11-21T15:00:45;10.70;99.90
4934;DHT22;2482;49.154;8.254;2023-11-21T15:03:12;10.60;99.90
4934;DHT22;2482;49.154;8.254;2023-11-21T15:06:01;10.60;99.90
4934;DHT22;2482;49.154;8.254;2023-11-21T15:08:50;10.50;99.90
4934;DHT22;2482;49.154;8.254;2023-11-21T15:11:44;10.50;99.90
4934;DHT22;2482;49.154;8.254;2023-11-21T15:14:11;10.50;99.90
4934;DHT22;2482;49.154;8.254;2023-11-21T15:16:46;10.40;99.90
4934;DHT22;2482;49.154;8.254;2023-11-21T15:19:18;10.40;99.90
4934;DHT22;2482;49.154;8.254;2023-11-21T15:21:51;10.30;99.90
4934;DHT22;2482;49.154;8.254;2023-11-21T15:24:19;10.30;99.90
4934;DHT22;2482;49.154;8.254;2023-11-21T15:26:47;10.20;99.90
4934;DHT22;2482;49.154;8.254;2023-11-21T15:29:14;10.20;99.90
4934;DHT22;2482;49.154;8.254;2023-11-21T15:31:43;10.10;99.90
4934;DHT22;2482;49.154;8.254;2023-11-21T15:34:15;10.10;99.90
4934;DHT22;2482;49.154;8.254;2023-11-21T15:36:43;10.10;99.90
4934;DHT22;2482;49.154;8.254;2023-11-21T15:39:10;10.00;99.90
4934;DHT22;2482;49.154;8.254;2023-11-21T15:41:39;10.00;99.90
4934;DHT22;2482;49.154;8.254;2023-11-21T15:44:08;9.80;99.90
4934;DHT22;2482;49.154;8.254;2023-11-21T15:46:39;9.80;99.90
4934;DHT22;2482;49.154;8.254;2023-11-21T15:49:10;9.80;99.90
4934;DHT22;2482;49.154;8.254;2023-11-21T15:51:42;9.70;99.90
4934;DHT22;2482;49.154;8.254;2023-11-21T15:54:13;9.80;99.90
4934;DHT22;2482;49.154;8.254;2023-11-21T15:56:43;9.70;99.90
4934;DHT22;2482;49.154;8.254;2023-11-21T15:59:13;9.70;99.90
4934;DHT22;2482;49.154;8.254;2023-11-21T16:01:40;9.40;99.90
4934;DHT22;2482;49.154;8.254;2023-11-21T16:04:15;9.40;99.90
4934;DHT22;2482;49.154;8.254;2023-11-21T16:06:44;9.30;99.90
4934;DHT22;2482;49.154;8.254;2023-11-21T16:09:15;9.50;99.90
4934;DHT22;2482;49.154;8.254;2023-11-21T16:11:49;9.50;99.90
4934;DHT22;2482;49.154;8.254;2023-11-21T16:14:20;9.50;99.90
4934;DHT22;2482;49.154;8.254;2023-11-21T16:16:52;9.50;99.90
4934;DHT22;2482;49.154;8.254;2023-11-21T16:19:19;9.60;99.90
4934;DHT22;2482;49.154;8.254;2023-11-21T16:21:48;9.40;99.90
4934;DHT22;2482;49.154;8.254;2023-11-21T16:24:15;9.40;99.90
4934;DHT22;2482;49.154;8.254;2023-11-21T16:26:43;9.40;99.90
4934;DHT22;2482;49.154;8.254;2023-11-21T16:29:12;9.30;99.90
4934;DHT22;2482;49.154;8.254;2023-11-21T16:31:40;9.30;99.90
4934;DHT22;2482;49.154;8.254;2023-11-21T16:34:13;9.50;99.90
4934;DHT22;2482;49.154;8.254;2023-11-21T16:36:46;9.70;99.90
4934;DHT22;2482;49.154;8.254;2023-11-21T16:39:13;9.70;99.90
4934;DHT22;2482;49.154;8.254;2023-11-21T16:41:41;9.70;99.90
4934;DHT22;2482;49.154;8.254;2023-11-21T16:44:14;9.70;99.90
4934;DHT22;2482;49.154;8.254;2023-11-21T16:46:49;9.90;99.90
4934;DHT22;2482;49.154;8.254;2023-11-21T16:49:24;10.00;99.90
4934;DHT22;2482;49.154;8.254;2023-11-21T16:51:54;10.00;99.90